Latest Coastal Weather Observations for Onslow Airport

IDW60701

Issued at 12:13 pm WST Friday 22 September 2017 (issued every 10 minutes, with the page automatically refreshed every 10 minutes)

About coastal observations | Map of coastal stations | Coastal observations for WA | Marine services | Other Formats
Station Details ID: 005017 Name: ONSLOW AIRPORT Lat: -21.67 Lon: 115.11 Height: 10.5 m
Data from the previous 72 hours. | See also: Recent months at Onslow Airport
Date/Time
WST
Temp
°C
Wind Pressure Rain since
9am
mm
Weather Cloud Vis
km
Sea
Height
m
Swell
Dir  Spd
kts
Gust
kts
hPa Trend Height
m
Period
s
Dir
22/12:00pm 27.5 WNW 16 20 1014.9 - 0.0 - Clear 10 - - - -
22/11:30am 27.7 SW 9 13 1015.2 - 0.0 - - 10 - - - -
22/11:00am 27.4 SSW 10 13 1015.7 - 0.0 - - 10 - - - -
22/10:30am 26.9 SW 10 16 1016.1 - 0.0 - - 10 - - - -
22/10:00am 26.0 SSW 12 17 1016.3 - 0.0 - - 10 - - - -
22/09:30am 24.6 SSW 13 17 1016.4 - 0.0 - - 10 - - - -
22/09:00am 24.1 SSW 13 17 1016.2 - 0.0 - - 10 - - - -
22/08:30am 23.1 SSW 13 17 1016.2 - 0.0 - - 10 - - - -
22/08:00am 21.9 SSW 12 15 1016.0 - 0.0 - - 10 - - - -
22/07:30am 20.6 SSW 9 13 1015.8 - 0.0 - - 10 - - - -
22/07:00am 19.5 SSW 8 11 1015.4 - 0.0 - - 10 - - - -
22/06:30am 18.7 SSW 9 12 1014.9 - 0.0 - - 10 - - - -
22/06:00am 18.7 SSW 9 12 1014.6 - 0.0 - - 10 - - - -
22/05:30am 18.9 SSW 12 15 1014.3 - 0.0 - - 10 - - - -
22/05:00am 19.0 SSW 12 15 1014.0 - 0.0 - - 10 - - - -
22/04:30am 19.2 SSW 14 18 1013.6 - 0.0 - - 10 - - - -
22/04:00am 19.4 SSW 15 19 1013.4 - 0.0 - - 10 - - - -
22/03:30am 19.4 SSW 14 18 1013.2 - 0.0 - - 10 - - - -
22/03:00am 19.4 SW 13 17 1013.1 - 0.0 - - 10 - - - -
22/02:30am 19.5 SW 13 17 1013.1 - 0.0 - - 10 - - - -
22/02:00am 19.8 SW 13 16 1013.2 - 0.0 - - 10 - - - -
22/01:30am 20.0 SW 12 15 1013.1 - 0.0 - - 10 - - - -
22/01:00am 20.3 SW 12 14 1013.1 - 0.0 - - 10 - - - -
22/12:30am 20.6 SW 11 14 1013.1 - 0.0 - - 10 - - - -
22/12:00am 21.0 SW 13 16 1013.1 - 0.0 - - 10 - - - -
 
Date/Time
WST
Temp
°C
Wind Pressure Rain since
9am
mm
Weather Cloud Vis
km
Sea
Height
m
Swell
Dir  Spd
kts
Gust
kts
hPa Trend Height
m
Period
s
Dir
21/11:30pm 21.4 SW 11 15 1013.1 - 0.0 - - 10 - - - -
21/11:00pm 21.8 SW 13 16 1013.1 - 0.0 - - 10 - - - -
21/10:30pm 22.3 SW 11 15 1013.0 - 0.0 - - 10 - - - -
21/10:00pm 23.1 SW 13 17 1013.0 - 0.0 - - 10 - - - -
21/09:30pm 23.7 SW 13 17 1013.1 - 0.0 - - 10 - - - -
21/09:00pm 24.5 SW 15 19 1012.9 - 0.0 - - 10 - - - -
21/08:30pm 25.5 WSW 13 16 1012.7 - 0.0 - - 10 - - - -
21/08:00pm 25.7 WSW 10 12 1012.3 - 0.0 - - 10 - - - -
21/07:30pm 25.8 W 10 12 1012.0 - 0.0 - - 10 - - - -
21/07:00pm 25.4 W 10 12 1011.7 - 0.0 - - 10 - - - -
21/06:30pm 25.6 W 10 13 1011.3 - 0.0 - - 10 - - - -
21/06:00pm 26.0 W 13 15 1011.0 - 0.0 - - 10 - - - -
21/05:30pm 27.0 W 14 17 1010.8 - 0.0 - - 10 - - - -
21/05:00pm 27.8 W 14 18 1010.7 - 0.0 - - 10 - - - -
21/04:30pm 28.0 WNW 15 20 1010.8 - 0.0 - - 10 - - - -
21/04:00pm 28.9 W 16 21 1010.9 - 0.0 - - 10 - - - -
21/03:30pm 28.9 W 18 24 1011.0 - 0.0 - - 10 - - - -
21/03:00pm 30.5 WNW 17 22 1011.4 - 0.0 - - 10 - - - -
21/02:30pm 31.1 WNW 18 23 1011.5 - 0.0 - - 10 - - - -
21/02:00pm 31.1 WNW 17 20 1011.8 - 0.0 - - 10 - - - -
21/01:30pm 30.7 WNW 18 22 1012.3 - 0.0 - - 10 - - - -
21/01:00pm 29.9 WNW 17 21 1012.7 - 0.0 - - 10 - - - -
21/12:30pm 28.3 WNW 18 21 1013.0 - 0.0 - - 10 - - - -
21/12:00pm 31.4 WNW 14 16 1013.2 - 0.0 - - 10 - - - -
21/11:30am 31.6 W 11 14 1013.4 - 0.0 - - 10 - - - -
21/11:00am 31.0 WNW 9 12 1013.9 - 0.0 - - 10 - - - -
21/10:30am 32.1 W 3 10 1014.2 - 0.0 - - 10 - - - -
21/10:00am 29.7 SSW 7 9 1014.2 - 0.0 - - 10 - - - -
21/09:30am 27.1 SW 8 10 1014.3 - 0.0 - - 10 - - - -
21/09:00am 25.6 SSW 8 9 1014.2 - 0.0 - - 10 - - - -
21/08:30am 23.2 SW 8 10 1014.3 - 0.0 - - 10 - - - -
21/08:00am 21.5 SW 9 11 1014.3 - 0.0 - - 10 - - - -
21/07:30am 19.9 SW 11 12 1014.1 - 0.0 - - 10 - - - -
21/07:00am 19.0 SW 7 9 1013.8 - 0.0 - - 10 - - - -
21/06:30am 18.2 SW 8 10 1013.6 - 0.0 - - 10 - - - -
21/06:00am 17.6 WSW 7 9 1013.5 - 0.0 - - 10 - - - -
21/05:30am 17.4 WSW 7 9 1013.4 - 0.0 - - 10 - - - -
21/05:00am 17.2 WSW 6 8 1013.2 - 0.0 - - 10 - - - -
21/04:30am 17.8 W 6 7 1013.1 - 0.0 - - 10 - - - -
21/04:00am 18.5 W 7 8 1012.8 - 0.0 - - 10 - - - -
21/03:30am 18.8 WNW 7 8 1012.8 - 0.0 - - 10 - - - -
21/03:00am 20.3 SW 8 9 1012.6 - 0.0 - - 10 - - - -
21/02:30am 20.5 SW 8 11 1012.8 - 0.0 - - 10 - - - -
21/02:00am 20.5 WSW 7 8 1013.1 - 0.0 - - 10 - - - -
21/01:30am 21.3 SW 8 10 1013.2 - 0.0 - - 10 - - - -
21/01:00am 22.1 SW 10 12 1013.4 - 0.0 - - 10 - - - -
21/12:30am 22.4 SW 10 12 1013.5 - 0.0 - - 10 - - - -
21/12:00am 22.8 SW 9 11 1013.5 - 0.0 - - 10 - - - -
 
Date/Time
WST
Temp
°C
Wind Pressure Rain since
9am
mm
Weather Cloud Vis
km
Sea
Height
m
Swell
Dir  Spd
kts
Gust
kts
hPa Trend Height
m
Period
s
Dir
20/11:30pm 23.3 SW 9 11 1013.7 - 0.0 - - 10 - - - -
20/11:00pm 23.6 SW 8 9 1013.7 - 0.0 - - 10 - - - -
20/10:30pm 24.4 SW 8 11 1013.9 - 0.0 - - 10 - - - -
20/10:00pm 25.4 SW 10 11 1013.9 - 0.0 - - 10 - - - -
20/09:30pm 25.8 SW 9 11 1014.0 - 0.0 - - 10 - - - -
20/09:00pm 26.5 SW 11 13 1013.8 - 0.0 - - 10 - - - -
20/08:30pm 26.4 SW 10 13 1013.7 - 0.0 - - 10 - - - -
20/08:00pm 26.1 WSW 9 12 1013.3 - 0.0 - - 10 - - - -
20/07:30pm 26.1 WSW 9 11 1013.0 - 0.0 - - 10 - - - -
20/07:00pm 27.2 W 9 10 1012.8 - 0.0 - - 10 - - - -
20/06:30pm 29.0 W 8 10 1012.6 - 0.0 - - 10 - - - -
20/06:00pm 32.3 WSW 9 12 1012.4 - 0.0 - - 10 - - - -
20/05:30pm 33.8 W 12 15 1012.1 - 0.0 - - 10 - - - -
20/05:00pm 34.0 W 12 16 1012.0 - 0.0 - - 10 - - - -
20/04:30pm 34.7 W 14 18 1012.1 - 0.0 - - 10 - - - -
20/04:00pm 34.2 W 13 17 1012.2 - 0.0 - - 10 - - - -
20/03:30pm 34.8 W 13 17 1012.4 - 0.0 - - 10 - - - -
20/03:00pm 32.3 W 15 17 1012.7 - 0.0 - - 10 - - - -
20/02:30pm 31.4 WNW 14 18 1013.1 - 0.0 - - 10 - - - -
20/02:00pm 33.1 NW 13 17 1013.5 - 0.0 - - 10 - - - -
20/01:30pm 36.5 SW 11 16 1013.6 - 0.0 - - 10 - - - -
20/01:00pm 35.3 SW 10 17 1014.1 - 0.0 - - 10 - - - -
20/12:30pm 35.8 S 12 16 1014.3 - 0.0 - - 10 - - - -
20/12:00pm 34.4 SSW 13 17 1014.8 - 0.0 - - 10 - - - -
20/11:30am 33.6 SSW 13 17 1015.3 - 0.0 - - 10 - - - -
20/11:00am 32.2 SSE 11 14 1015.7 - 0.0 - - 10 - - - -
20/10:30am 29.9 S 8 11 1016.3 - 0.0 - - 10 - - - -
20/10:00am 28.6 S 8 11 1016.8 - 0.0 - - 10 - - - -
20/09:30am 26.8 S 9 12 1017.0 - 0.0 - - 10 - - - -
20/09:00am 25.1 S 7 10 1017.2 - 0.0 - - 10 - - - -
20/08:30am 23.1 S 6 9 1017.3 - 0.0 - - 10 - - - -
20/08:00am 22.0 S 8 9 1017.1 - 0.0 - - 10 - - - -
20/07:30am 21.1 SSE 7 9 1016.9 - 0.0 - - 10 - - - -
20/07:00am 20.3 SSE 7 9 1016.4 - 0.0 - - 10 - - - -
20/06:30am 19.2 S 9 11 1015.8 - 0.0 - - 10 - - - -
20/06:00am 19.2 S 11 14 1015.5 - 0.0 - - 10 - - - -
20/05:30am 19.7 S 13 16 1015.0 - 0.0 - - 10 - - - -
20/05:00am 19.9 S 11 14 1015.0 - 0.0 - - 10 - - - -
20/04:30am 20.4 S 11 14 1014.8 - 0.0 - - 10 - - - -
20/04:00am 20.7 S 11 14 1014.7 - 0.0 - - 10 - - - -
20/03:30am 21.2 SSW 13 16 1014.8 - 0.0 - - 10 - - - -
20/03:00am 21.5 SSW 15 18 1014.9 - 0.0 - - 10 - - - -
20/02:30am 21.9 SSW 13 16 1014.9 - 0.0 - - 10 - - - -
20/02:00am 22.2 SSW 13 17 1015.0 - 0.0 - - 10 - - - -
20/01:30am 22.4 SSW 12 16 1015.0 - 0.0 - - 10 - - - -
20/01:00am 22.8 SSW 15 19 1015.0 - 0.0 - - 10 - - - -
20/12:30am 23.1 SSW 15 18 1015.3 - 0.0 - - 10 - - - -
20/12:00am 23.8 SSW 16 19 1015.4 - 0.0 - - 10 - - - -
 
Date/Time
WST
Temp
°C
Wind Pressure Rain since
9am
mm
Weather Cloud Vis
km
Sea
Height
m
Swell
Dir  Spd
kts
Gust
kts
hPa Trend Height
m
Period
s
Dir
19/11:30pm 24.0 SSW 13 16 1015.6 - 0.0 - - 10 - - - -
19/11:00pm 24.7 SW 13 17 1015.8 - 0.0 - - 10 - - - -
19/10:30pm 25.3 SW 14 17 1016.0 - 0.0 - - 10 - - - -
19/10:00pm 26.0 SW 14 17 1016.1 - 0.0 - - 10 - - - -
19/09:30pm 26.6 SW 13 17 1015.9 - 0.0 - - 10 - - - -
19/09:00pm 27.1 SW 12 15 1015.8 - 0.0 - - 10 - - - -
19/08:30pm 25.7 WSW 8 9 1015.6 - 0.0 - - 10 - - - -
19/08:00pm 26.0 W 9 11 1015.4 - 0.0 - - 10 - - - -
19/07:30pm 26.1 WSW 9 11 1015.2 - 0.0 - - 10 - - - -
19/07:00pm 25.7 W 9 11 1015.0 - 0.0 - - 10 - - - -
19/06:30pm 26.4 W 10 13 1014.7 - 0.0 - - 10 - - - -
19/06:00pm 27.2 W 12 15 1014.4 - 0.0 - - 10 - - - -
19/05:30pm 28.3 WNW 12 15 1014.1 - 0.0 - - 10 - - - -
19/05:00pm 29.2 W 13 18 1014.1 - 0.0 - - 10 - - - -
19/04:30pm 29.3 W 15 19 1014.3 - 0.0 - - 10 - - - -
19/04:00pm 30.6 WNW 14 17 1014.3 - 0.0 - - 10 - - - -
19/03:30pm 31.2 WNW 15 18 1014.4 - 0.0 - - 10 - - - -
19/03:00pm 32.4 WNW 15 19 1014.6 - 0.0 - - 10 - - - -
19/02:30pm 32.8 WNW 16 19 1014.7 - 0.0 - - 10 - - - -
19/02:00pm 33.7 WNW 15 18 1014.9 - 0.0 - - 10 - - - -
19/01:30pm 34.5 WNW 13 15 1015.3 - 0.0 - - 10 - - - -
19/01:00pm 35.1 WNW 11 14 1015.6 - 0.0 - - 10 - - - -
19/12:30pm 37.6 WSW 6 12 1016.0 - 0.0 - - 10 - - - -

Other Formats:

Comma delimited format used in spreadsheet applications
http://www.bom.gov.au/fwo/IDW60701/IDW60701.95305.axf

JavaScript Object Notation format (JSON) in row-major order
http://www.bom.gov.au/fwo/IDW60701/IDW60701.95305.json